Time;durP1;ratioP1;P1;durP2;ratioP2;P2;SDS_P1;SDS_P2;PMS_P1;PMS_P2;Temp;Humidity;BMP_temperature;BMP_pressure;BME280_temperature;BME280_humidity;BME280_pressure;Samples;Min_cycle;Max_cycle;Signal;HPM_P1;HPM_P2
2022/12/30 00:01:06;;;;;;;14.35;9.13;;;;;;;0.86;100.00;99744.20;1746581;80;21532;-73
2022/12/30 00:03:32;;;;;;;15.10;9.35;;;;;;;0.88;100.00;99755.05;1744935;81;21058;-73
2022/12/30 00:06:00;;;;;;;15.53;9.48;;;;;;;0.88;100.00;99758.24;1742491;81;21093;-73
2022/12/30 00:11:13;;;;;;;13.72;9.13;;;;;;;0.84;100.00;99759.69;1730781;81;20970;-71
2022/12/30 00:33:43;;;;;;;16.40;10.48;;;;;;;0.96;100.00;99767.38;1762637;80;21021;-72
2022/12/30 00:36:10;;;;;;;16.10;10.18;;;;;;;0.92;100.00;99770.20;1758731;80;21062;-71
2022/12/30 00:38:36;;;;;;;16.90;10.38;;;;;;;0.98;100.00;99766.67;1706712;82;21125;-72
2022/12/30 00:43:48;;;;;;;16.20;9.98;;;;;;;1.04;100.00;99760.98;1735282;81;21042;-73
2022/12/30 00:46:15;;;;;;;19.15;10.85;;;;;;;0.98;100.00;99761.31;1747033;81;21041;-71
2022/12/30 00:56:55;;;;;;;15.63;9.65;;;;;;;0.90;100.00;99751.63;1756697;81;21053;-71
2022/12/30 00:59:22;;;;;;;13.55;9.23;;;;;;;0.87;100.00;99758.75;1743300;80;21018;-72
2022/12/30 01:01:48;;;;;;;14.23;9.60;;;;;;;0.87;100.00;99751.23;1743826;80;20971;-73
2022/12/30 01:04:15;;;;;;;18.00;10.72;;;;;;;0.88;100.00;99748.86;1768202;79;21093;-72
2022/12/30 01:06:42;;;;;;;17.90;9.60;;;;;;;0.85;100.00;99749.28;1751374;81;21521;-72
2022/12/30 01:09:08;;;;;;;17.07;10.30;;;;;;;0.78;100.00;99746.59;1757421;80;21063;-71
2022/12/30 01:11:34;;;;;;;18.23;10.28;;;;;;;0.74;100.00;99742.70;1754187;81;21041;-71
2022/12/30 01:14:01;;;;;;;17.55;10.35;;;;;;;0.78;100.00;99739.09;1754731;80;20998;-72
2022/12/30 01:16:27;;;;;;;16.70;9.58;;;;;;;0.81;100.00;99746.70;1755604;80;21072;-72
2022/12/30 01:18:54;;;;;;;18.23;10.72;;;;;;;0.79;100.00;99746.08;1751233;80;21001;-71
2022/12/30 01:21:20;;;;;;;13.25;8.98;;;;;;;0.72;100.00;99743.41;1751790;81;21052;-71
2022/12/30 01:23:47;;;;;;;17.05;10.45;;;;;;;0.68;100.00;99750.72;1756138;81;21414;-71
2022/12/30 01:26:13;;;;;;;16.05;10.28;;;;;;;0.70;100.00;99745.48;1757997;80;20965;-71
2022/12/30 01:28:39;;;;;;;15.35;10.20;;;;;;;0.72;100.00;99746.60;1756211;80;21718;-71
2022/12/30 01:31:07;;;;;;;;;;;;;;;0.70;100.00;99749.51;1767937;81;21633;-71
2022/12/30 01:33:34;;;;;;;17.55;10.28;;;;;;;0.65;100.00;99743.11;1756043;80;20134;-71
2022/12/30 01:36:02;;;;;;;14.65;10.00;;;;;;;0.55;100.00;99739.52;1754580;80;21002;-72
2022/12/30 01:38:31;;;;;;;16.20;10.70;;;;;;;0.59;100.00;99741.27;1776735;79;21011;-71
2022/12/30 01:40:58;;;;;;;17.35;10.48;;;;;;;0.63;100.00;99741.99;1760245;80;20977;-72
2022/12/30 01:43:44;;;;;;;;;;;;;;;0.58;100.00;99743.11;1754328;80;20989;-72
2022/12/30 01:46:14;;;;;;;17.23;10.75;;;;;;;0.55;100.00;99741.36;1756765;80;20127;-71
2022/12/30 01:48:41;;;;;;;17.25;10.38;;;;;;;0.54;100.00;99733.84;1757918;80;21647;-71
2022/12/30 01:51:12;;;;;;;15.88;10.68;;;;;;;0.59;100.00;99739.92;1766053;80;20966;-71
2022/12/30 01:53:44;;;;;;;17.85;10.65;;;;;;;0.60;100.00;99735.71;1758339;80;20958;-72
2022/12/30 01:56:23;;;;;;;17.80;11.40;;;;;;;0.60;100.00;99738.91;1730984;82;21062;-71
2022/12/30 01:59:07;;;;;;;17.65;10.85;;;;;;;0.61;100.00;99735.17;1739314;81;21634;-72
2022/12/30 02:01:34;;;;;;;19.73;10.93;;;;;;;0.65;100.00;99736.41;1748277;81;21053;-71
2022/12/30 02:04:05;;;;;;;;;;;;;;;0.64;100.00;99733.44;1753872;81;21034;-72
2022/12/30 02:06:43;;;;;;;17.50;11.00;;;;;;;0.59;100.00;99738.08;1751371;81;20119;-72
2022/12/30 02:09:10;;;;;;;18.95;10.82;;;;;;;0.53;100.00;99730.05;1753664;81;21088;-71
2022/12/30 02:11:36;;;;;;;16.67;10.23;;;;;;;0.58;100.00;99735.08;1749444;81;21343;-72
2022/12/30 02:14:03;;;;;;;19.60;11.73;;;;;;;0.62;100.00;99726.94;1742385;81;21299;-72
2022/12/30 02:17:06;;;;;;;17.87;11.00;;;;;;;0.63;100.00;99728.59;1738996;81;21051;-72
2022/12/30 02:19:57;;;;;;;17.80;10.85;;;;;;;0.63;100.00;99727.77;1739168;82;21023;-72
2022/12/30 02:22:59;;;;;;;17.92;10.60;;;;;;;0.62;100.00;99726.94;1734196;81;21087;-71
2022/12/30 02:26:14;;;;;;;16.30;10.55;;;;;;;0.70;100.00;99724.56;1741058;82;21544;-71
2022/12/30 02:29:12;;;;;;;19.65;11.38;;;;;;;0.70;100.00;99721.38;1746602;81;21357;-71
2022/12/30 02:31:50;;;;;;;20.92;11.12;;;;;;;0.61;100.00;99711.89;1719724;83;21056;-71
2022/12/30 02:34:22;;;;;;;16.57;10.98;;;;;;;0.71;100.00;99720.31;1738714;82;21557;-72
2022/12/30 02:37:07;;;;;;;18.65;10.98;;;;;;;0.82;100.00;99722.37;1742022;81;21002;-71
2022/12/30 02:39:56;;;;;;;17.40;10.78;;;;;;;0.85;100.00;99725.16;1744636;82;21068;-71
2022/12/30 02:45:24;;;;;;;18.17;11.18;;;;;;;0.94;100.00;99728.74;1745017;82;20978;-72
2022/12/30 02:47:59;;;;;;;15.68;10.53;;;;;;;1.06;100.00;99716.87;1740204;81;20998;-71
2022/12/30 02:53:16;;;;;;;17.67;10.82;;;;;;;1.14;100.00;99714.45;1703695;81;21109;-72
2022/12/30 02:55:42;;;;;;;16.90;11.10;;;;;;;1.17;100.00;99720.75;1686124;83;20994;-73
2022/12/30 02:58:09;;;;;;;16.93;11.03;;;;;;;1.24;100.00;99716.98;1715764;82;21116;-72
2022/12/30 03:04:11;;;;;;;17.07;10.85;;;;;;;1.38;100.00;99715.10;1675618;84;21084;-72
2022/12/30 03:06:48;;;;;;;;;;;;;;;1.35;100.00;99716.84;1691100;84;21082;-72
2022/12/30 03:09:37;;;;;;;16.02;10.72;;;;;;;1.32;100.00;99715.41;1704948;83;20290;-72
2022/12/30 03:12:14;;;;;;;18.57;10.88;;;;;;;1.32;100.00;99714.59;1703976;82;21065;-72
2022/12/30 03:14:52;;;;;;;18.05;10.05;;;;;;;1.36;100.00;99715.30;1738385;81;21093;-71
2022/12/30 03:17:22;;;;;;;15.55;10.78;;;;;;;1.31;100.00;99716.44;1767561;78;21070;-71
2022/12/30 03:19:52;;;;;;;15.72;10.35;;;;;;;1.27;100.00;99719.27;1761384;80;21049;-72
2022/12/30 03:27:52;;;;;;;16.23;11.00;;;;;;;1.42;100.00;99729.19;1778967;78;21018;-72
2022/12/30 03:30:19;;;;;;;16.97;11.33;;;;;;;1.40;100.00;99724.57;1770811;80;20942;-72
2022/12/30 03:32:47;;;;;;;16.52;11.28;;;;;;;1.42;100.00;99731.05;1714842;81;21121;-72
2022/12/30 03:35:14;;;;;;;18.42;11.65;;;;;;;1.48;100.00;99727.53;1787976;80;20979;-72
2022/12/30 03:37:43;;;;;;;;;;;;;;;1.58;100.00;99736.46;1764443;79;21370;-72
2022/12/30 03:40:23;;;;;;;20.27;11.33;;;;;;;1.61;100.00;99737.37;1769825;80;20453;-72
2022/12/30 03:42:51;;;;;;;18.70;11.22;;;;;;;1.53;100.00;99734.92;1743582;81;21092;-71
2022/12/30 03:45:17;;;;;;;19.70;11.25;;;;;;;1.53;100.00;99732.23;1775886;80;21056;-72
2022/12/30 03:47:44;;;;;;;18.02;11.48;;;;;;;1.55;100.00;99735.55;1737172;81;21561;-72
2022/12/30 03:50:10;;;;;;;16.77;10.85;;;;;;;1.64;100.00;99736.94;1743263;81;21010;-71
2022/12/30 03:52:36;;;;;;;17.48;10.98;;;;;;;1.67;100.00;99733.31;1733022;81;21115;-72
2022/12/30 03:55:03;;;;;;;;;;;;;;;1.68;100.00;99735.48;1753237;81;21540;-72
2022/12/30 03:57:30;;;;;;;17.70;10.60;;;;;;;1.67;100.00;99743.22;1752444;80;20142;-72
2022/12/30 03:59:56;;;;;;;17.05;11.15;;;;;;;1.59;100.00;99742.97;1757843;81;21582;-73
2022/12/30 04:02:23;;;;;;;15.85;9.53;;;;;;;1.66;100.00;99743.76;1751218;81;21097;-72
2022/12/30 04:04:49;;;;;;;;;;;;;;;1.63;100.00;99734.77;1737849;81;20997;-73
2022/12/30 04:07:15;;;;;;;17.55;10.50;;;;;;;1.70;100.00;99740.13;1734572;82;20109;-73
2022/12/30 04:09:42;;;;;;;17.52;10.82;;;;;;;1.61;100.00;99736.03;1735879;82;21506;-73
2022/12/30 04:14:56;;;;;;;16.93;9.95;;;;;;;1.77;100.00;99732.32;1794445;78;23423;-73
2022/12/30 04:17:23;;;;;;;16.67;11.15;;;;;;;1.73;100.00;99741.03;1766683;80;21015;-72
2022/12/30 04:19:49;;;;;;;18.62;11.15;;;;;;;1.67;100.00;99726.59;1728178;82;21059;-72
2022/12/30 04:22:16;;;;;;;16.67;10.78;;;;;;;1.72;100.00;99735.36;1745163;82;21581;-72
2022/12/30 04:24:42;;;;;;;17.42;11.35;;;;;;;1.77;100.00;99738.23;1743740;82;21584;-72
2022/12/30 04:27:09;;;;;;;17.35;10.48;;;;;;;1.87;100.00;99721.96;1745993;82;21010;-72
2022/12/30 04:29:35;;;;;;;15.85;10.48;;;;;;;1.87;100.00;99721.96;1748737;82;21023;-73
2022/12/30 04:32:02;;;;;;;16.30;10.50;;;;;;;1.89;100.00;99729.78;1737145;82;21003;-73
2022/12/30 04:34:29;;;;;;;14.70;10.55;;;;;;;1.88;100.00;99729.47;1734505;82;21022;-73
2022/12/30 04:36:55;;;;;;;17.10;10.63;;;;;;;1.91;100.00;99723.70;1720624;82;21035;-72
2022/12/30 04:39:22;;;;;;;16.12;10.78;;;;;;;1.98;100.00;99727.95;1741082;82;21030;-73
2022/12/30 04:41:48;;;;;;;16.73;10.95;;;;;;;2.02;100.00;99722.98;1746608;81;20995;-74
2022/12/30 04:44:15;;;;;;;17.25;11.53;;;;;;;2.00;100.00;99725.07;1737705;81;21078;-73
2022/12/30 04:46:41;;;;;;;;;;;;;;;2.00;100.00;99729.09;1724499;82;21031;-73
2022/12/30 04:49:08;;;;;;;20.90;12.03;;;;;;;2.03;100.00;99730.00;1720950;82;20132;-73
2022/12/30 04:51:36;;;;;;;21.27;12.63;;;;;;;2.06;100.00;99728.73;1728223;82;21150;-73
2022/12/30 04:56:42;;;;;;;22.37;13.90;;;;;;;2.07;100.00;99729.88;1791901;79;22926;-73
2022/12/30 04:59:09;;;;;;;21.15;13.93;;;;;;;2.02;100.00;99729.69;1736342;81;21572;-73
2022/12/30 05:01:37;;;;;;;18.85;11.95;;;;;;;2.03;100.00;99732.69;1750768;82;21619;-74
2022/12/30 05:04:04;;;;;;;18.52;11.43;;;;;;;2.10;100.00;99734.81;1747131;80;21081;-73
2022/12/30 05:06:30;;;;;;;17.32;11.55;;;;;;;2.13;100.00;99738.40;1752599;82;21815;-72
2022/12/30 05:08:57;;;;;;;16.70;11.57;;;;;;;2.12;100.00;99735.95;1744340;80;22076;-72
2022/12/30 05:11:23;;;;;;;18.95;11.05;;;;;;;2.09;100.00;99733.16;1715901;82;21110;-72
2022/12/30 05:13:49;;;;;;;16.75;11.48;;;;;;;2.09;100.00;99731.81;1685294;83;21105;-73
2022/12/30 05:16:16;;;;;;;18.20;10.88;;;;;;;2.14;100.00;99728.48;1674786;84;21105;-72
2022/12/30 05:18:42;;;;;;;;;;;;;;;2.14;100.00;99727.97;1718288;83;21136;-73
2022/12/30 05:21:09;;;;;;;19.60;12.15;;;;;;;2.11;100.00;99729.75;1716379;83;20113;-73
2022/12/30 05:26:21;;;;;;;15.55;10.95;;;;;;;2.04;100.00;99726.29;1680663;84;21091;-72
2022/12/30 05:28:48;;;;;;;16.30;11.12;;;;;;;2.11;100.00;99732.44;1703651;83;21526;-73
2022/12/30 05:31:15;;;;;;;18.23;11.60;;;;;;;2.15;100.00;99726.94;1697315;83;21055;-72
2022/12/30 05:33:42;;;;;;;17.45;11.28;;;;;;;2.11;100.00;99728.41;1687204;83;21106;-73
2022/12/30 05:36:10;;;;;;;19.23;11.57;;;;;;;2.10;100.00;99733.98;1674458;83;21094;-73
2022/12/30 05:38:36;;;;;;;17.17;11.75;;;;;;;2.12;100.00;99730.06;1676646;84;21071;-73
2022/12/30 05:41:04;;;;;;;16.55;11.53;;;;;;;2.17;100.00;99724.02;1655556;84;22160;-73
2022/12/30 05:43:31;;;;;;;17.10;11.22;;;;;;;2.20;100.00;99731.63;1688294;83;21439;-74
2022/12/30 05:45:58;;;;;;;;;;;;;;;2.19;100.00;99740.75;1705458;84;21121;-73
2022/12/30 05:48:24;;;;;;;18.12;11.12;;;;;;;2.16;100.00;99731.25;1703138;83;20155;-73
2022/12/30 05:50:51;;;;;;;;;;;;;;;2.07;100.00;99737.94;1705512;83;21113;-73
2022/12/30 05:53:17;;;;;;;;;;;;;;;2.11;100.00;99736.98;1701466;83;20120;-73
2022/12/30 05:55:43;;;;;;;;;;;;;;;2.14;100.00;99738.71;1698174;84;20964;-72
2022/12/30 05:58:10;;;;;;;;;;;;;;;2.12;100.00;99744.83;1690363;83;20178;-73
2022/12/30 06:00:36;;;;;;;;;;;;;;;2.07;100.00;99751.88;1677452;84;20183;-73
2022/12/30 06:03:03;;;;;;;;;;;;;;;2.03;100.00;99754.17;1689980;83;20130;-73
2022/12/30 06:05:29;;;;;;;;;;;;;;;2.06;100.00;99760.96;1688824;84;20188;-71
2022/12/30 06:07:56;;;;;;;;;;;;;;;2.14;100.00;99763.39;1674397;83;20142;-73
2022/12/30 06:10:22;;;;;;;;;;;;;;;2.12;100.00;99762.29;1670556;84;20130;-74
2022/12/30 06:12:48;;;;;;;;;;;;;;;2.08;100.00;99760.24;1677724;83;20127;-74
2022/12/30 06:15:14;;;;;;;;;;;;;;;2.07;100.00;99754.56;1683414;84;20473;-74
2022/12/30 06:17:41;;;;;;;;;;;;;;;2.09;100.00;99760.01;1663339;84;20144;-73
2022/12/30 06:20:08;;;;;;;;;;;;;;;2.16;100.00;99766.16;1686987;84;20159;-74
2022/12/30 06:22:35;;;;;;;;;;;;;;;2.19;100.00;99767.09;1689958;83;20135;-74
2022/12/30 06:25:01;;;;;;;;;;;;;;;2.17;100.00;99776.39;1689578;85;20156;-74
2022/12/30 06:27:27;;;;;;;;;;;;;;;2.14;100.00;99774.14;1669007;84;20488;-74
2022/12/30 06:29:53;;;;;;;;;;;;;;;2.12;100.00;99779.74;1687606;84;20202;-74
2022/12/30 06:32:20;;;;;;;;;;;;;;;2.14;100.00;99778.99;1689733;83;20168;-75
2022/12/30 06:34:46;;;;;;;;;;;;;;;2.23;100.00;99779.58;1665398;85;20214;-73
2022/12/30 06:37:12;;;;;;;;;;;;;;;2.26;100.00;99780.48;1688978;83;20143;-73
2022/12/30 06:39:39;;;;;;;;;;;;;;;2.22;100.00;99786.80;1689820;84;20147;-73
2022/12/30 06:42:05;;;;;;;;;;;;;;;2.18;100.00;99780.22;1691976;83;20116;-73
2022/12/30 06:44:31;;;;;;;;;;;;;;;2.21;100.00;99778.95;1690714;85;20142;-73
2022/12/30 06:46:57;;;;;;;;;;;;;;;2.28;100.00;99780.55;1691725;83;20119;-73
2022/12/30 06:49:24;;;;;;;;;;;;;;;2.34;100.00;99788.25;1679815;84;20112;-74
2022/12/30 06:51:50;;;;;;;;;;;;;;;2.37;100.00;99793.22;1678912;84;20434;-73
2022/12/30 06:54:18;;;;;;;;;;;;;;;2.34;100.00;99793.11;1677674;85;20104;-74
2022/12/30 06:56:45;;;;;;;;;;;;;;;2.31;100.00;99798.09;1674005;84;20112;-74
2022/12/30 06:59:12;;;;;;;;;;;;;;;2.30;100.00;99790.55;1666097;84;20124;-73
2022/12/30 07:01:38;;;;;;;;;;;;;;;2.27;100.00;99797.70;1683512;85;20104;-74
2022/12/30 07:04:04;;;;;;;;;;;;;;;2.29;100.00;99791.61;1662434;85;20116;-74
2022/12/30 07:06:30;;;;;;;;;;;;;;;2.38;100.00;99796.19;1662408;85;20144;-74
2022/12/30 07:08:57;;;;;;;;;;;;;;;2.45;100.00;99798.30;1667874;84;20497;-74
2022/12/30 07:11:23;;;;;;;;;;;;;;;2.48;100.00;99797.34;1676090;84;20144;-74
2022/12/30 07:13:49;;;;;;;;;;;;;;;2.44;100.00;99794.00;1683736;84;20123;-74
2022/12/30 07:16:15;;;;;;;;;;;;;;;2.35;100.00;99787.22;1690572;84;20173;-72
2022/12/30 07:18:42;;;;;;;;;;;;;;;2.41;100.00;99801.95;1689450;83;20156;-73
2022/12/30 07:21:08;;;;;;;;;;;;;;;2.42;100.00;99796.06;1684705;84;20153;-74
2022/12/30 07:23:34;;;;;;;;;;;;;;;2.47;100.00;99790.35;1683543;84;20163;-75
2022/12/30 07:26:01;;;;;;;;;;;;;;;2.55;100.00;99781.72;1684029;85;20211;-75
2022/12/30 07:28:28;;;;;;;;;;;;;;;2.60;100.00;99781.35;1690448;83;20146;-73
2022/12/30 07:30:54;;;;;;;;;;;;;;;2.60;100.00;99782.70;1686236;84;20476;-73
2022/12/30 07:33:20;;;;;;;;;;;;;;;2.56;100.00;99787.37;1686043;83;20127;-74
2022/12/30 07:35:47;;;;;;;;;;;;;;;2.53;100.00;99775.20;1688663;84;20134;-74
2022/12/30 07:38:13;;;;;;;;;;;;;;;2.53;100.00;99781.09;1679160;85;20465;-73
2022/12/30 07:40:40;;;;;;;;;;;;;;;2.50;100.00;99787.23;1683251;84;20169;-75
2022/12/30 07:43:06;;;;;;;;;;;;;;;2.50;100.00;99795.28;1690187;83;20143;-73
2022/12/30 07:45:35;;;;;;;;;;;;;;;2.53;100.00;99791.33;1688886;84;20167;-77
2022/12/30 07:48:01;;;;;;;;;;;;;;;2.62;100.00;99784.66;1688950;83;20715;-77
2022/12/30 07:50:27;;;;;;;;;;;;;;;2.70;100.00;99790.26;1685936;85;20334;-78
2022/12/30 07:52:54;;;;;;;;;;;;;;;2.72;100.00;99786.84;1668402;85;20119;-77
2022/12/30 07:55:20;;;;;;;;;;;;;;;2.70;100.00;99783.53;1681431;84;20109;-76
2022/12/30 07:57:47;;;;;;;;;;;;;;;2.70;100.00;99795.63;1693719;83;20439;-76
2022/12/30 08:00:14;;;;;;;;;;;;;;;2.69;100.00;99796.18;1697216;85;20135;-76
2022/12/30 08:02:41;;;;;;;;;;;;;;;2.89;100.00;99801.38;1692503;83;20135;-76
2022/12/30 08:05:08;;;;;;;;;;;;;;;2.97;100.00;99812.69;1694516;84;20142;-76
2022/12/30 08:07:35;;;;;;;;;;;;;;;2.97;100.00;99810.52;1677518;84;20502;-77
2022/12/30 08:10:01;;;;;;;;;;;;;;;2.93;100.00;99812.00;1696014;85;20221;-78
2022/12/30 08:12:27;;;;;;;;;;;;;;;2.90;100.00;99802.52;1695194;83;20134;-78
2022/12/30 08:14:55;;;;;;;;;;;;;;;2.87;100.00;99800.23;1660100;85;20533;-75
2022/12/30 08:17:21;;;;;;;;;;;;;;;2.86;100.00;99811.23;1689999;84;20155;-74
2022/12/30 08:19:48;;;;;;;;;;;;;;;2.94;100.00;99811.76;1695833;84;20135;-76
2022/12/30 08:22:14;;;;;;;;;;;;;;;3.03;100.00;99811.48;1695803;83;20135;-73
2022/12/30 08:24:41;;;;;;;;;;;;;;;3.07;100.00;99813.52;1645019;85;20294;-74
2022/12/30 08:27:08;;;;;;;;;;;;;;;3.06;100.00;99817.25;1695046;83;20178;-73
2022/12/30 08:29:34;;;;;;;;;;;;;;;3.07;100.00;99823.45;1695681;85;20292;-74
2022/12/30 08:32:02;;;;;;;;;;;;;;;3.07;100.00;99825.63;1695171;83;20147;-73
2022/12/30 08:34:28;;;;;;;;;;;;;;;3.09;100.00;99835.63;1681572;84;20147;-74
2022/12/30 08:36:55;;;;;;;;;;;;;;;3.17;100.00;99828.63;1665352;85;20151;-73
2022/12/30 08:39:21;;;;;;;;;;;;;;;3.37;100.00;99835.15;1666076;86;20282;-73
2022/12/30 08:41:47;;;;;;;;;;;;;;;3.53;100.00;99828.37;1668374;84;20481;-74
2022/12/30 08:44:14;;;;;;;;;;;;;;;3.66;100.00;99824.17;1676346;83;20418;-76
2022/12/30 08:46:41;;;;;;;;;;;;;;;3.71;100.00;99825.16;1662929;84;20134;-74
2022/12/30 08:49:09;;;;;;;;;;;;;;;3.74;100.00;99830.09;1665392;85;20163;-75
2022/12/30 08:51:35;;;;;;;;;;;;;;;3.81;100.00;99838.91;1668031;84;20140;-73
2022/12/30 08:54:02;;;;;;;;;;;;;;;3.87;100.00;99844.73;1674160;85;20119;-74
2022/12/30 08:56:29;;;;;;;;;;;;;;;3.91;100.00;99837.03;1690046;85;20156;-74
2022/12/30 08:58:56;;;;;;;;;;;;;;;4.04;100.00;99839.55;1680226;84;20108;-74
2022/12/30 09:01:25;;;;;;;;;;;;;;;4.18;100.00;99831.59;1680216;85;20112;-74
2022/12/30 09:03:51;;;;;;;;;;;;;;;4.21;100.00;99838.41;1653232;85;20496;-73
2022/12/30 09:06:21;;;;;;;;;;;;;;;4.23;100.00;99839.83;1675729;85;20151;-73
2022/12/30 09:08:47;;;;;;;;;;;;;;;4.22;100.00;99836.00;1676940;84;20184;-74
2022/12/30 09:11:16;;;;;;;;;;;;;;;4.21;100.00;99827.12;1669475;85;20169;-74
2022/12/30 09:13:42;;;;;;;;;;;;;;;4.27;100.00;99830.23;1658566;85;20118;-73
2022/12/30 09:16:10;;;;;;;;;;;;;;;4.34;100.00;99822.88;1663729;86;20125;-74
2022/12/30 09:18:37;;;;;;;;;;;;;;;4.37;100.00;99826.98;1663780;85;20118;-73
2022/12/30 09:21:03;;;;;;;;;;;;;;;4.33;100.00;99825.27;1633594;86;20134;-74
2022/12/30 09:23:30;;;;;;;;;;;;;;;4.34;100.00;99819.36;1652555;85;20108;-74
2022/12/30 09:25:57;;;;;;;;;;;;;;;4.40;100.00;99813.88;1680252;85;20431;-74
2022/12/30 09:28:23;;;;;;;;;;;;;;;4.48;100.00;99809.51;1678647;84;20108;-74
2022/12/30 09:30:49;;;;;;;;;;;;;;;4.69;100.00;99814.06;1666134;85;20123;-74
2022/12/30 09:33:16;;;;;;;;;;;;;;;4.93;100.00;99803.07;1650693;85;20114;-74
2022/12/30 09:35:43;;;;;;;;;;;;;;;5.14;100.00;99799.48;1651310;87;20146;-75
2022/12/30 09:38:09;;;;;;;;;;;;;;;5.31;100.00;99795.05;1655565;85;20094;-76
2022/12/30 09:41:02;;;;;;;;;;;;;;;5.45;100.00;99801.84;1674593;85;20456;-75
2022/12/30 09:43:58;;;;;;;;;;;;;;;5.57;100.00;99795.87;1661922;85;20138;-75
2022/12/30 09:46:46;;;;;;;;;;;;;;;5.70;100.00;99799.69;1604839;88;20178;-75
2022/12/30 09:49:28;;;;;;;;;;;;;;;5.81;100.00;99791.27;1622561;86;20149;-76
2022/12/30 09:52:01;;;;;;;;;;;;;;;5.88;100.00;99786.02;1593762;88;20173;-76
2022/12/30 09:54:27;;;;;;;;;;;;;;;5.92;100.00;99788.53;1635412;88;20132;-76
2022/12/30 09:56:57;;;;;;;;;;;;;;;5.92;100.00;99778.25;1662180;84;20736;-76
2022/12/30 09:59:29;;;;;;;;;;;;;;;6.02;100.00;99785.76;1669815;85;20133;-77
2022/12/30 10:01:59;;;;;;;;;;;;;;;5.99;100.00;99773.00;1679738;84;20147;-76
2022/12/30 10:04:26;;;;;;;;;;;;;;;5.96;100.00;99777.55;1657495;85;20139;-76
2022/12/30 10:07:19;;;;;;;;;;;;;;;5.97;100.00;99775.14;1676217;85;20175;-76
2022/12/30 10:09:58;;;;;;;;;;;;;;;6.00;100.00;99768.42;1678066;85;20153;-75
2022/12/30 10:12:41;;;;;;;;;;;;;;;5.98;100.00;99770.03;1682348;84;20148;-75
2022/12/30 10:15:26;;;;;;;;;;;;;;;6.00;100.00;99769.77;1649506;85;20511;-76
2022/12/30 10:18:14;;;;;;;;;;;;;;;6.12;100.00;99760.27;1681857;83;20147;-76
2022/12/30 10:20:53;;;;;;;;;;;;;;;6.22;100.00;99759.10;1697939;84;20167;-75
2022/12/30 10:23:43;;;;;;;;;;;;;;;6.25;100.00;99752.68;1684368;84;20160;-72
2022/12/30 10:26:17;;;;;;;;;;;;;;;6.27;100.00;99753.80;1697236;84;20143;-75
2022/12/30 10:28:50;;;;;;;;;;;;;;;6.30;100.00;99748.73;1697815;83;20158;-75
2022/12/30 10:31:19;;;;;;;;;;;;;;;6.33;100.00;99759.58;1696928;84;20175;-74
2022/12/30 10:33:50;;;;;;;;;;;;;;;6.33;100.00;99756.34;1696771;83;20158;-76
2022/12/30 10:36:25;;;;;;;;;;;;;;;6.34;100.00;99753.91;1679634;85;20490;-76
2022/12/30 10:38:55;;;;;;;;;;;;;;;6.36;100.00;99763.97;1675348;84;20160;-75
2022/12/30 10:41:31;;;;;;;;;;;;;;;6.37;100.00;99753.45;1640640;87;20468;-75
2022/12/30 10:44:19;;;;;;;;;;;;;;;6.47;100.00;99751.44;1637062;87;20481;-76
2022/12/30 10:46:55;;;;;;;;;;;;;;;6.57;100.00;99752.96;1658730;85;20138;-75
2022/12/30 10:49:31;;;;;;;;;;;;;;;6.56;100.00;99759.43;1643194;86;20152;-76
2022/12/30 10:51:57;;;;;;;;;;;;;;;6.51;100.00;99745.84;1641398;86;20139;-75
2022/12/30 10:54:24;;;;;;;;;;;;;;;6.43;100.00;99743.00;1641812;87;20170;-72
2022/12/30 10:56:50;;;;;;;;;;;;;;;6.36;100.00;99735.58;1649400;85;20166;-71
2022/12/30 10:59:24;;;;;;;;;;;;;;;6.34;100.00;99735.55;1659391;85;20147;-71
2022/12/30 11:01:53;;;;;;;;;;;;;;;6.31;100.00;99736.00;1669082;85;20313;-71
2022/12/30 11:04:39;;;;;;;;;;;;;;;6.28;100.00;99726.51;1672715;85;20402;-72
2022/12/30 11:07:08;;;;;;;;;;;;;;;6.24;100.00;99722.65;1668565;85;20143;-72
2022/12/30 11:09:34;;;;;;;;;;;;;;;6.24;100.00;99728.58;1664530;85;20474;-73
2022/12/30 11:14:58;;;;;;;;;;;;;;;6.36;100.00;99740.98;1664486;85;20449;-73
2022/12/30 11:17:26;;;;;;;;;;;;;;;6.40;100.00;99731.33;1660504;85;20178;-72
2022/12/30 11:20:15;;;;;;;;;;;;;;;6.37;100.00;99741.28;1670494;85;20536;-75
2022/12/30 11:22:48;;;;;;;;;;;;;;;6.36;100.00;99747.75;1681640;85;20195;-76
2022/12/30 11:25:18;;;;;;;;;;;;;;;6.31;100.00;99741.41;1657268;85;20146;-76
2022/12/30 11:27:46;;;;;;;;;;;;;;;6.27;100.00;99734.32;1637394;86;20162;-76
2022/12/30 11:30:47;;;;;;;;;;;;;;;6.31;100.00;99736.00;1661011;85;20134;-76
2022/12/30 11:33:17;;;;;;;;;;;;;;;6.37;100.00;99738.58;1669241;85;20112;-76
2022/12/30 11:35:46;;;;;;;;;;;;;;;6.36;100.00;99733.40;1670663;84;20140;-76
2022/12/30 11:38:38;;;;;;;;;;;;;;;6.32;100.00;99724.14;1669264;84;20109;-76
2022/12/30 11:41:20;;;;;;;;;;;;;;;6.27;100.00;99727.56;1643361;87;20109;-76
2022/12/30 11:43:53;;;;;;;;;;;;;;;6.20;100.00;99714.73;1659039;84;20418;-76
2022/12/30 11:46:22;;;;;;;;;;;;;;;6.14;100.00;99715.72;1645927;87;20113;-76
2022/12/30 11:48:52;;;;;;;;;;;;;;;6.10;100.00;99716.44;1683877;84;20111;-77
2022/12/30 11:51:22;;;;;;;;;;;;;;;6.08;100.00;99711.30;1649299;87;20130;-76
2022/12/30 11:53:51;;;;;;;;;;;;;;;6.16;100.00;99716.31;1646218;85;20585;-76
2022/12/30 11:56:22;;;;;;;;;;;;;;;6.22;100.00;99715.33;1619436;87;20115;-75
2022/12/30 11:58:48;;;;;;;;;;;;;;;6.26;100.00;99723.77;1657784;85;20145;-76
2022/12/30 12:01:15;;;;;;;;;;;;;;;6.24;100.00;99725.34;1655348;86;20134;-76
2022/12/30 12:03:50;;;;;;;;;;;;;;;6.23;100.00;99730.48;1655681;85;20106;-76
2022/12/30 12:06:16;;;;;;;;;;;;;;;6.19;100.00;99733.39;1667914;86;20121;-76
2022/12/30 12:08:47;;;;;;;;;;;;;;;6.15;100.00;99729.53;1667257;85;20118;-76
2022/12/30 12:11:19;;;;;;;;;;;;;;;6.11;100.00;99723.49;1667698;86;20137;-75
2022/12/30 12:13:55;;;;;;;;;;;;;;;6.14;100.00;99725.17;1660014;85;20139;-76
2022/12/30 12:16:39;;;;;;;;;;;;;;;6.16;100.00;99740.64;1658903;86;20118;-75
2022/12/30 12:19:11;;;;;;;;;;;;;;;6.11;100.00;99738.36;1635653;86;20123;-76
2022/12/30 12:21:38;;;;;;;;;;;;;;;6.06;100.00;99735.58;1673200;85;20163;-76
2022/12/30 12:24:17;;;;;;;;;;;;;;;6.03;100.00;99743.61;1678139;85;20780;-76
2022/12/30 12:26:50;;;;;;;;;;;;;;;6.06;100.00;99740.42;1678565;85;20187;-76
2022/12/30 12:29:16;;;;;;;;;;;;;;;6.14;100.00;99751.38;1681735;84;20163;-75
2022/12/30 12:32:07;;;;;;;;;;;;;;;6.12;100.00;99746.77;1678213;85;20517;-75
2022/12/30 12:34:55;;;;;;;;;;;;;;;6.07;100.00;99746.12;1678471;85;20132;-75
2022/12/30 12:37:43;;;;;;;;;;;;;;;5.99;100.00;99743.28;1678179;84;20406;-75
2022/12/30 12:40:33;;;;;;;;;;;;;;;5.94;100.00;99743.20;1666606;84;20135;-75
2022/12/30 12:43:15;;;;;;;;;;;;;;;5.95;100.00;99742.67;1678626;84;20131;-76
2022/12/30 12:45:58;;;;;;;;;;;;;;;6.02;100.00;99749.28;1678218;85;20123;-75
2022/12/30 12:48:33;;;;;;;;;;;;;;;6.00;100.00;99750.86;1674351;84;20201;-75
2022/12/30 12:51:18;;;;;;;;;;;;;;;5.93;100.00;99748.30;1659034;85;20158;-75
2022/12/30 12:53:52;;;;;;;;;;;;;;;5.85;100.00;99745.95;1630542;87;20134;-76
2022/12/30 12:56:28;;;;;;;;;;;;;;;5.76;100.00;99744.70;1627140;88;20147;-75
2022/12/30 12:59:15;;;;;;;;;;;;;;;5.69;100.00;99749.42;1656753;86;20189;-74
2022/12/30 13:02:18;;;;;;;;;;;;;;;5.62;100.00;99741.98;1649242;85;20137;-75
2022/12/30 13:04:48;;;;;;;;;;;;;;;5.64;100.00;99737.68;1647508;87;20464;-75
2022/12/30 13:07:21;;;;;;;;;;;;;;;5.70;100.00;99747.55;1649937;85;20186;-75
2022/12/30 13:10:04;;;;;;;;;;;;;;;5.65;100.00;99742.86;1659652;84;20177;-75
2022/12/30 13:12:33;;;;;;;;;;;;;;;5.58;100.00;99748.09;1681365;84;20144;-75
2022/12/30 13:15:21;;;;;;;;;;;;;;;5.48;100.00;99751.41;1687317;84;20108;-75
2022/12/30 13:17:48;;;;;;;;;;;;;;;5.42;100.00;99760.48;1681059;84;20160;-75
2022/12/30 13:20:22;;;;;;;;;;;;;;;5.36;100.00;99758.70;1696481;84;20158;-75
2022/12/30 13:22:49;;;;;;;;;;;;;;;5.32;100.00;99757.53;1710301;82;20293;-74
2022/12/30 13:25:25;;;;;;;;;;;;;;;5.39;100.00;99757.70;1710586;84;20131;-75
2022/12/30 13:27:55;;;;;;;;;;;;;;;5.47;100.00;99757.86;1715447;82;20155;-74
2022/12/30 13:30:21;;;;;;;;;;;;;;;5.45;100.00;99766.75;1707215;83;20165;-74